sensor_id;sensor_type;location;lat;lon;timestamp;P1;P2;P0
23240;PMS7003;11789;53.482;9.862;2023-03-12T00:01:19;10.00;10.00;7.00
23240;PMS7003;11789;53.482;9.862;2023-03-12T00:03:47;13.67;13.67;7.00
23240;PMS7003;11789;53.482;9.862;2023-03-12T00:06:14;9.00;9.00;6.00
23240;PMS7003;11789;53.482;9.862;2023-03-12T00:08:39;10.67;9.00;7.00
23240;PMS7003;11789;53.482;9.862;2023-03-12T00:11:06;12.33;12.33;7.67
23240;PMS7003;11789;53.482;9.862;2023-03-12T00:13:36;11.67;10.00;6.33
23240;PMS7003;11789;53.482;9.862;2023-03-12T00:16:05;10.33;9.33;6.67
23240;PMS7003;11789;53.482;9.862;2023-03-12T00:18:33;15.00;11.67;9.00
23240;PMS7003;11789;53.482;9.862;2023-03-12T00:20:59;15.00;11.00;9.00
23240;PMS7003;11789;53.482;9.862;2023-03-12T00:23:24;11.67;9.00;7.00
23240;PMS7003;11789;53.482;9.862;2023-03-12T00:25:50;16.33;14.00;9.00
23240;PMS7003;11789;53.482;9.862;2023-03-12T00:28:15;13.67;10.33;8.33
23240;PMS7003;11789;53.482;9.862;2023-03-12T00:30:41;15.33;12.33;8.33
23240;PMS7003;11789;53.482;9.862;2023-03-12T00:33:08;12.00;9.67;8.67
23240;PMS7003;11789;53.482;9.862;2023-03-12T00:35:36;18.00;14.33;10.00
23240;PMS7003;11789;53.482;9.862;2023-03-12T00:38:02;14.00;12.67;8.67
23240;PMS7003;11789;53.482;9.862;2023-03-12T00:40:27;13.67;11.67;8.33
23240;PMS7003;11789;53.482;9.862;2023-03-12T00:42:53;13.00;13.00;9.00
23240;PMS7003;11789;53.482;9.862;2023-03-12T00:45:18;8.00;6.67;6.00
23240;PMS7003;11789;53.482;9.862;2023-03-12T00:47:44;16.33;12.33;8.67
23240;PMS7003;11789;53.482;9.862;2023-03-12T00:50:09;13.00;13.00;8.33
23240;PMS7003;11789;53.482;9.862;2023-03-12T00:52:35;17.00;14.00;9.00
23240;PMS7003;11789;53.482;9.862;2023-03-12T00:55:00;11.33;10.00;9.00
23240;PMS7003;11789;53.482;9.862;2023-03-12T00:57:26;13.00;10.00;7.67
23240;PMS7003;11789;53.482;9.862;2023-03-12T00:59:51;10.00;10.00;7.00
23240;PMS7003;11789;53.482;9.862;2023-03-12T01:02:17;10.00;10.00;8.67
23240;PMS7003;11789;53.482;9.862;2023-03-12T01:04:42;10.00;10.00;7.33
23240;PMS7003;11789;53.482;9.862;2023-03-12T01:07:08;9.33;9.33;7.00
23240;PMS7003;11789;53.482;9.862;2023-03-12T01:09:33;13.33;10.00;7.67
23240;PMS7003;11789;53.482;9.862;2023-03-12T01:11:59;13.00;11.00;7.33
23240;PMS7003;11789;53.482;9.862;2023-03-12T01:14:24;13.00;13.00;9.00
23240;PMS7003;11789;53.482;9.862;2023-03-12T01:16:49;10.33;10.33;7.33
23240;PMS7003;11789;53.482;9.862;2023-03-12T01:19:15;12.00;11.67;9.00
23240;PMS7003;11789;53.482;9.862;2023-03-12T01:21:40;13.67;11.33;8.67
23240;PMS7003;11789;53.482;9.862;2023-03-12T01:24:06;14.00;12.67;9.00
23240;PMS7003;11789;53.482;9.862;2023-03-12T01:26:31;12.67;11.33;8.33
23240;PMS7003;11789;53.482;9.862;2023-03-12T01:28:57;10.33;9.00;6.00
23240;PMS7003;11789;53.482;9.862;2023-03-12T01:31:22;11.00;9.67;6.67
23240;PMS7003;11789;53.482;9.862;2023-03-12T01:33:49;12.33;11.33;7.33
23240;PMS7003;11789;53.482;9.862;2023-03-12T01:36:17;13.00;12.00;9.00
23240;PMS7003;11789;53.482;9.862;2023-03-12T01:38:44;16.33;12.33;9.00
23240;PMS7003;11789;53.482;9.862;2023-03-12T01:41:10;16.00;10.67;8.00
23240;PMS7003;11789;53.482;9.862;2023-03-12T01:43:36;17.67;10.00;6.00
23240;PMS7003;11789;53.482;9.862;2023-03-12T01:46:13;13.67;10.00;6.67
23240;PMS7003;11789;53.482;9.862;2023-03-12T01:52:00;10.00;10.00;8.00
23240;PMS7003;11789;53.482;9.862;2023-03-12T01:56:58;16.00;13.00;10.00
23240;PMS7003;11789;53.482;9.862;2023-03-12T01:59:28;12.33;12.33;8.67
23240;PMS7003;11789;53.482;9.862;2023-03-12T02:01:57;13.33;9.00;6.00
23240;PMS7003;11789;53.482;9.862;2023-03-12T02:04:23;13.00;10.67;8.00
23240;PMS7003;11789;53.482;9.862;2023-03-12T02:06:56;10.00;10.00;8.33
23240;PMS7003;11789;53.482;9.862;2023-03-12T02:09:28;10.00;10.00;9.00
23240;PMS7003;11789;53.482;9.862;2023-03-12T02:11:56;10.00;9.00;7.33
23240;PMS7003;11789;53.482;9.862;2023-03-12T02:14:22;13.33;10.67;8.33
23240;PMS7003;11789;53.482;9.862;2023-03-12T02:16:47;11.67;11.33;7.33
23240;PMS7003;11789;53.482;9.862;2023-03-12T02:22:05;10.00;10.00;8.00
23240;PMS7003;11789;53.482;9.862;2023-03-12T02:24:33;13.33;10.67;8.67
23240;PMS7003;11789;53.482;9.862;2023-03-12T02:27:05;10.00;10.00;8.67
23240;PMS7003;11789;53.482;9.862;2023-03-12T02:29:32;14.33;13.67;9.00
23240;PMS7003;11789;53.482;9.862;2023-03-12T02:31:59;12.00;11.33;9.00
23240;PMS7003;11789;53.482;9.862;2023-03-12T02:34:28;12.33;10.00;7.33
23240;PMS7003;11789;53.482;9.862;2023-03-12T02:36:54;13.00;10.00;9.00
23240;PMS7003;11789;53.482;9.862;2023-03-12T02:39:19;14.00;11.33;8.00
23240;PMS7003;11789;53.482;9.862;2023-03-12T02:41:47;18.33;14.00;9.00
23240;PMS7003;11789;53.482;9.862;2023-03-12T02:44:19;14.33;12.33;9.00
23240;PMS7003;11789;53.482;9.862;2023-03-12T02:46:47;15.67;14.00;10.00
23240;PMS7003;11789;53.482;9.862;2023-03-12T02:49:15;10.67;9.67;7.33
23240;PMS7003;11789;53.482;9.862;2023-03-12T02:51:43;15.33;15.33;10.00
23240;PMS7003;11789;53.482;9.862;2023-03-12T02:54:10;16.33;13.67;7.67
23240;PMS7003;11789;53.482;9.862;2023-03-12T02:56:37;11.67;11.33;7.67
23240;PMS7003;11789;53.482;9.862;2023-03-12T02:59:03;14.67;13.00;9.00
23240;PMS7003;11789;53.482;9.862;2023-03-12T03:01:29;15.00;14.00;9.67
23240;PMS7003;11789;53.482;9.862;2023-03-12T03:03:58;17.33;12.00;7.67
23240;PMS7003;11789;53.482;9.862;2023-03-12T03:06:25;14.00;12.00;8.67
23240;PMS7003;11789;53.482;9.862;2023-03-12T03:08:50;16.67;13.67;10.00
23240;PMS7003;11789;53.482;9.862;2023-03-12T03:11:16;10.67;10.00;6.00
23240;PMS7003;11789;53.482;9.862;2023-03-12T03:13:41;15.33;13.33;8.33
23240;PMS7003;11789;53.482;9.862;2023-03-12T03:16:07;12.67;10.00;7.00
23240;PMS7003;11789;53.482;9.862;2023-03-12T03:18:33;17.67;15.33;11.00
23240;PMS7003;11789;53.482;9.862;2023-03-12T03:21:03;17.33;14.67;9.00
23240;PMS7003;11789;53.482;9.862;2023-03-12T03:23:31;11.67;10.00;6.67
23240;PMS7003;11789;53.482;9.862;2023-03-12T03:25:56;13.00;13.00;9.00
23240;PMS7003;11789;53.482;9.862;2023-03-12T03:28:23;14.33;13.00;9.00
23240;PMS7003;11789;53.482;9.862;2023-03-12T03:30:51;9.67;9.33;7.33
23240;PMS7003;11789;53.482;9.862;2023-03-12T03:33:18;15.33;13.00;9.00
23240;PMS7003;11789;53.482;9.862;2023-03-12T03:35:43;9.33;9.33;6.00
23240;PMS7003;11789;53.482;9.862;2023-03-12T03:38:09;13.67;13.00;9.00
23240;PMS7003;11789;53.482;9.862;2023-03-12T03:40:35;18.33;13.00;9.33
23240;PMS7003;11789;53.482;9.862;2023-03-12T03:43:00;13.00;13.00;9.33
23240;PMS7003;11789;53.482;9.862;2023-03-12T03:45:26;19.67;13.67;9.33
23240;PMS7003;11789;53.482;9.862;2023-03-12T03:47:51;16.00;13.00;8.00
23240;PMS7003;11789;53.482;9.862;2023-03-12T03:50:17;9.00;9.00;8.00
23240;PMS7003;11789;53.482;9.862;2023-03-12T03:52:43;14.67;14.67;10.00
23240;PMS7003;11789;53.482;9.862;2023-03-12T03:55:08;23.67;17.67;12.00
23240;PMS7003;11789;53.482;9.862;2023-03-12T03:57:34;14.33;14.33;11.33
23240;PMS7003;11789;53.482;9.862;2023-03-12T03:59:59;19.67;14.00;10.67
23240;PMS7003;11789;53.482;9.862;2023-03-12T04:02:25;15.33;13.00;9.00
23240;PMS7003;11789;53.482;9.862;2023-03-12T04:04:51;21.00;16.67;10.00
23240;PMS7003;11789;53.482;9.862;2023-03-12T04:07:20;12.00;12.00;8.00
23240;PMS7003;11789;53.482;9.862;2023-03-12T04:09:46;14.33;14.33;9.67
23240;PMS7003;11789;53.482;9.862;2023-03-12T04:12:11;16.67;15.33;12.00
23240;PMS7003;11789;53.482;9.862;2023-03-12T04:14:40;13.33;13.33;9.00
23240;PMS7003;11789;53.482;9.862;2023-03-12T04:17:06;16.67;14.33;10.00
23240;PMS7003;11789;53.482;9.862;2023-03-12T04:19:32;17.33;16.33;10.67
23240;PMS7003;11789;53.482;9.862;2023-03-12T04:21:58;20.00;15.67;9.33
23240;PMS7003;11789;53.482;9.862;2023-03-12T04:24:23;16.67;16.33;12.33
23240;PMS7003;11789;53.482;9.862;2023-03-12T04:26:49;12.00;12.00;8.33
23240;PMS7003;11789;53.482;9.862;2023-03-12T04:29:16;15.00;14.33;10.00
23240;PMS7003;11789;53.482;9.862;2023-03-12T04:31:42;11.33;11.33;8.00
23240;PMS7003;11789;53.482;9.862;2023-03-12T04:34:08;14.00;14.00;10.00
23240;PMS7003;11789;53.482;9.862;2023-03-12T04:36:34;24.00;17.00;10.67
23240;PMS7003;11789;53.482;9.862;2023-03-12T04:39:00;22.33;17.00;9.67
23240;PMS7003;11789;53.482;9.862;2023-03-12T04:41:25;17.00;16.00;12.00
23240;PMS7003;11789;53.482;9.862;2023-03-12T04:43:51;8.67;6.67;6.00
23240;PMS7003;11789;53.482;9.862;2023-03-12T04:46:16;18.00;14.33;9.67
23240;PMS7003;11789;53.482;9.862;2023-03-12T04:48:42;14.33;12.33;9.00
23240;PMS7003;11789;53.482;9.862;2023-03-12T04:51:08;20.33;16.00;12.00
23240;PMS7003;11789;53.482;9.862;2023-03-12T04:53:33;20.33;16.33;12.00
23240;PMS7003;11789;53.482;9.862;2023-03-12T04:55:59;16.00;16.00;12.00
23240;PMS7003;11789;53.482;9.862;2023-03-12T04:58:24;23.33;17.33;12.00
23240;PMS7003;11789;53.482;9.862;2023-03-12T05:00:50;20.00;18.00;12.00
23240;PMS7003;11789;53.482;9.862;2023-03-12T05:03:15;21.33;20.67;13.00
23240;PMS7003;11789;53.482;9.862;2023-03-12T05:05:42;13.00;13.00;9.33
23240;PMS7003;11789;53.482;9.862;2023-03-12T05:08:07;16.00;14.33;10.33
23240;PMS7003;11789;53.482;9.862;2023-03-12T05:10:33;19.33;17.00;11.33
23240;PMS7003;11789;53.482;9.862;2023-03-12T05:12:58;17.33;17.33;12.33
23240;PMS7003;11789;53.482;9.862;2023-03-12T05:15:24;19.00;14.33;9.00
23240;PMS7003;11789;53.482;9.862;2023-03-12T05:17:50;20.00;20.00;11.33
23240;PMS7003;11789;53.482;9.862;2023-03-12T05:20:16;22.00;18.33;12.00
23240;PMS7003;11789;53.482;9.862;2023-03-12T05:22:41;25.67;18.00;10.00
23240;PMS7003;11789;53.482;9.862;2023-03-12T05:25:07;19.33;19.00;12.00
23240;PMS7003;11789;53.482;9.862;2023-03-12T05:27:33;19.67;16.67;12.67
23240;PMS7003;11789;53.482;9.862;2023-03-12T05:29:59;19.33;19.33;13.33
23240;PMS7003;11789;53.482;9.862;2023-03-12T05:32:25;15.33;15.33;9.67
23240;PMS7003;11789;53.482;9.862;2023-03-12T05:34:50;18.67;15.67;9.67
23240;PMS7003;11789;53.482;9.862;2023-03-12T05:37:16;18.67;17.00;13.00
23240;PMS7003;11789;53.482;9.862;2023-03-12T05:39:41;17.00;14.67;12.33
23240;PMS7003;11789;53.482;9.862;2023-03-12T05:42:11;18.33;16.67;11.33
23240;PMS7003;11789;53.482;9.862;2023-03-12T05:44:38;22.00;19.33;13.00
23240;PMS7003;11789;53.482;9.862;2023-03-12T05:47:03;20.00;20.00;12.67
23240;PMS7003;11789;53.482;9.862;2023-03-12T05:49:29;23.00;18.67;13.00
23240;PMS7003;11789;53.482;9.862;2023-03-12T05:51:55;28.00;19.33;12.00
23240;PMS7003;11789;53.482;9.862;2023-03-12T05:54:21;16.67;16.67;12.33
23240;PMS7003;11789;53.482;9.862;2023-03-12T05:56:47;21.33;20.33;14.33
23240;PMS7003;11789;53.482;9.862;2023-03-12T05:59:12;18.67;16.00;12.00
23240;PMS7003;11789;53.482;9.862;2023-03-12T06:01:38;21.67;20.00;13.00
23240;PMS7003;11789;53.482;9.862;2023-03-12T06:04:04;25.00;23.00;15.33
23240;PMS7003;11789;53.482;9.862;2023-03-12T06:06:30;17.67;15.33;12.67
23240;PMS7003;11789;53.482;9.862;2023-03-12T06:08:56;21.00;18.33;14.33
23240;PMS7003;11789;53.482;9.862;2023-03-12T06:11:22;24.67;21.00;13.33
23240;PMS7003;11789;53.482;9.862;2023-03-12T06:13:47;23.67;23.33;16.00
23240;PMS7003;11789;53.482;9.862;2023-03-12T06:16:17;22.33;18.00;12.33
23240;PMS7003;11789;53.482;9.862;2023-03-12T06:18:44;14.00;12.33;12.00
23240;PMS7003;11789;53.482;9.862;2023-03-12T06:21:17;22.00;20.67;13.00
23240;PMS7003;11789;53.482;9.862;2023-03-12T06:23:45;25.33;19.67;12.33
23240;PMS7003;11789;53.482;9.862;2023-03-12T06:26:11;14.33;13.00;13.00
23240;PMS7003;11789;53.482;9.862;2023-03-12T06:28:37;24.00;19.33;13.00
23240;PMS7003;11789;53.482;9.862;2023-03-12T06:31:04;22.00;16.67;13.00
23240;PMS7003;11789;53.482;9.862;2023-03-12T06:33:30;23.33;20.33;13.67
23240;PMS7003;11789;53.482;9.862;2023-03-12T06:35:57;21.00;21.00;14.00
23240;PMS7003;11789;53.482;9.862;2023-03-12T06:38:24;22.33;21.00;14.00
23240;PMS7003;11789;53.482;9.862;2023-03-12T06:40:57;23.00;20.67;14.67
23240;PMS7003;11789;53.482;9.862;2023-03-12T06:43:28;18.33;17.33;13.67
23240;PMS7003;11789;53.482;9.862;2023-03-12T06:45:56;27.33;23.00;15.33
23240;PMS7003;11789;53.482;9.862;2023-03-12T06:48:23;18.00;18.00;15.33
23240;PMS7003;11789;53.482;9.862;2023-03-12T06:50:50;27.00;24.67;15.00
23240;PMS7003;11789;53.482;9.862;2023-03-12T06:53:16;23.33;17.67;13.67
23240;PMS7003;11789;53.482;9.862;2023-03-12T06:55:42;23.33;21.00;13.00
23240;PMS7003;11789;53.482;9.862;2023-03-12T06:58:08;22.00;19.67;13.67
23240;PMS7003;11789;53.482;9.862;2023-03-12T07:00:34;22.00;22.00;14.00
23240;PMS7003;11789;53.482;9.862;2023-03-12T07:02:59;32.00;24.33;16.33
23240;PMS7003;11789;53.482;9.862;2023-03-12T07:05:26;29.67;25.00;14.67
23240;PMS7003;11789;53.482;9.862;2023-03-12T07:07:52;23.33;22.00;15.00
23240;PMS7003;11789;53.482;9.862;2023-03-12T07:10:17;25.33;21.33;15.33
23240;PMS7003;11789;53.482;9.862;2023-03-12T07:12:43;27.33;25.33;15.33
23240;PMS7003;11789;53.482;9.862;2023-03-12T07:15:10;24.67;22.00;14.33
23240;PMS7003;11789;53.482;9.862;2023-03-12T07:17:35;23.33;21.67;14.00
23240;PMS7003;11789;53.482;9.862;2023-03-12T07:20:01;25.00;24.67;17.67
23240;PMS7003;11789;53.482;9.862;2023-03-12T07:22:27;27.67;23.33;15.67
23240;PMS7003;11789;53.482;9.862;2023-03-12T07:24:52;29.00;22.00;14.67
23240;PMS7003;11789;53.482;9.862;2023-03-12T07:27:18;23.00;22.00;16.33
23240;PMS7003;11789;53.482;9.862;2023-03-12T07:29:43;27.67;26.00;16.67
23240;PMS7003;11789;53.482;9.862;2023-03-12T07:32:09;23.00;20.33;14.33
23240;PMS7003;11789;53.482;9.862;2023-03-12T07:34:35;20.33;15.33;13.67
23240;PMS7003;11789;53.482;9.862;2023-03-12T07:37:00;22.00;19.67;14.33
23240;PMS7003;11789;53.482;9.862;2023-03-12T07:39:26;20.67;18.67;14.00
23240;PMS7003;11789;53.482;9.862;2023-03-12T07:41:51;17.00;17.00;10.67
23240;PMS7003;11789;53.482;9.862;2023-03-12T07:44:17;15.33;12.33;9.00
23240;PMS7003;11789;53.482;9.862;2023-03-12T07:46:42;14.00;10.00;7.67
23240;PMS7003;11789;53.482;9.862;2023-03-12T07:49:08;14.00;14.00;10.00
23240;PMS7003;11789;53.482;9.862;2023-03-12T07:51:34;19.67;19.67;14.67
23240;PMS7003;11789;53.482;9.862;2023-03-12T07:53:59;20.67;19.33;14.33
23240;PMS7003;11789;53.482;9.862;2023-03-12T07:56:25;14.33;13.33;8.33
23240;PMS7003;11789;53.482;9.862;2023-03-12T07:58:50;10.33;7.33;6.33
23240;PMS7003;11789;53.482;9.862;2023-03-12T08:01:16;8.67;8.67;6.33
23240;PMS7003;11789;53.482;9.862;2023-03-12T08:03:41;8.67;8.67;6.67
23240;PMS7003;11789;53.482;9.862;2023-03-12T08:06:07;13.00;9.33;7.00
23240;PMS7003;11789;53.482;9.862;2023-03-12T08:08:33;11.00;8.67;7.00
23240;PMS7003;11789;53.482;9.862;2023-03-12T08:11:00;8.00;6.00;5.00
23240;PMS7003;11789;53.482;9.862;2023-03-12T08:13:27;5.00;5.00;5.00
23240;PMS7003;11789;53.482;9.862;2023-03-12T08:15:53;7.33;6.00;3.00
23240;PMS7003;11789;53.482;9.862;2023-03-12T08:18:19;7.67;6.00;4.33
23240;PMS7003;11789;53.482;9.862;2023-03-12T08:20:48;9.33;6.00;4.33
23240;PMS7003;11789;53.482;9.862;2023-03-12T08:23:15;7.00;5.33;4.33
23240;PMS7003;11789;53.482;9.862;2023-03-12T08:25:41;6.00;5.00;3.00
23240;PMS7003;11789;53.482;9.862;2023-03-12T08:28:09;2.00;2.00;2.00
23240;PMS7003;11789;53.482;9.862;2023-03-12T08:30:34;6.33;5.00;3.00
23240;PMS7003;11789;53.482;9.862;2023-03-12T08:33:00;5.00;5.00;3.00
23240;PMS7003;11789;53.482;9.862;2023-03-12T08:35:25;5.00;5.00;3.67
23240;PMS7003;11789;53.482;9.862;2023-03-12T08:37:51;6.00;3.67;3.00
23240;PMS7003;11789;53.482;9.862;2023-03-12T08:40:16;4.33;4.33;3.00
23240;PMS7003;11789;53.482;9.862;2023-03-12T08:42:43;9.33;7.00;5.00
23240;PMS7003;11789;53.482;9.862;2023-03-12T08:45:09;11.00;5.33;3.67
23240;PMS7003;11789;53.482;9.862;2023-03-12T08:47:36;5.00;5.00;3.00
23240;PMS7003;11789;53.482;9.862;2023-03-12T08:50:04;8.67;7.00;5.00
23240;PMS7003;11789;53.482;9.862;2023-03-12T08:52:30;6.67;6.67;5.33
23240;PMS7003;11789;53.482;9.862;2023-03-12T08:54:55;9.33;6.33;5.00
23240;PMS7003;11789;53.482;9.862;2023-03-12T08:57:21;8.00;8.00;5.00
23240;PMS7003;11789;53.482;9.862;2023-03-12T08:59:46;7.67;6.33;5.00
23240;PMS7003;11789;53.482;9.862;2023-03-12T09:02:12;7.00;7.00;5.67
23240;PMS7003;11789;53.482;9.862;2023-03-12T09:04:38;11.33;8.00;6.00
23240;PMS7003;11789;53.482;9.862;2023-03-12T09:07:03;16.33;8.33;7.00
23240;PMS7003;11789;53.482;9.862;2023-03-12T09:09:29;10.00;7.00;6.00
23240;PMS7003;11789;53.482;9.862;2023-03-12T09:11:54;10.67;10.33;7.00
23240;PMS7003;11789;53.482;9.862;2023-03-12T09:14:20;10.00;10.00;6.67
23240;PMS7003;11789;53.482;9.862;2023-03-12T09:16:45;13.00;8.67;7.00
23240;PMS7003;11789;53.482;9.862;2023-03-12T09:19:11;12.33;11.00;8.00
23240;PMS7003;11789;53.482;9.862;2023-03-12T09:21:36;12.33;11.00;8.00
23240;PMS7003;11789;53.482;9.862;2023-03-12T09:24:02;13.00;11.33;9.33
23240;PMS7003;11789;53.482;9.862;2023-03-12T09:26:27;16.00;15.00;11.00
23240;PMS7003;11789;53.482;9.862;2023-03-12T09:28:53;16.67;13.00;10.67
23240;PMS7003;11789;53.482;9.862;2023-03-12T09:31:18;12.00;12.00;8.67
23240;PMS7003;11789;53.482;9.862;2023-03-12T09:33:44;11.33;11.33;10.33
23240;PMS7003;11789;53.482;9.862;2023-03-12T09:36:09;11.33;11.33;7.33
23240;PMS7003;11789;53.482;9.862;2023-03-12T09:38:35;14.67;12.67;7.00
23240;PMS7003;11789;53.482;9.862;2023-03-12T09:41:03;10.00;10.00;7.00
23240;PMS7003;11789;53.482;9.862;2023-03-12T09:46:07;11.33;10.33;7.00
23240;PMS7003;11789;53.482;9.862;2023-03-12T09:48:39;12.00;10.00;8.00
23240;PMS7003;11789;53.482;9.862;2023-03-12T09:56:17;17.00;13.00;8.00
23240;PMS7003;11789;53.482;9.862;2023-03-12T09:58:45;6.67;6.67;5.33
23240;PMS7003;11789;53.482;9.862;2023-03-12T10:06:48;12.00;9.33;8.00
23240;PMS7003;11789;53.482;9.862;2023-03-12T10:09:18;8.33;8.33;7.00
23240;PMS7003;11789;53.482;9.862;2023-03-12T10:11:55;13.67;13.67;9.33
23240;PMS7003;11789;53.482;9.862;2023-03-12T10:14:27;12.00;12.00;9.33
23240;PMS7003;11789;53.482;9.862;2023-03-12T10:20:07;11.33;11.33;8.33
23240;PMS7003;11789;53.482;9.862;2023-03-12T10:22:45;13.00;13.00;9.00
23240;PMS7003;11789;53.482;9.862;2023-03-12T10:25:26;12.75;11.00;7.00
23240;PMS7003;11789;53.482;9.862;2023-03-12T10:27:54;12.00;11.00;8.00
23240;PMS7003;11789;53.482;9.862;2023-03-12T10:30:28;11.33;11.33;8.67
23240;PMS7003;11789;53.482;9.862;2023-03-12T10:32:57;13.67;12.00;8.00
23240;PMS7003;11789;53.482;9.862;2023-03-12T10:35:26;13.33;13.33;11.00
23240;PMS7003;11789;53.482;9.862;2023-03-12T10:40:31;12.00;9.67;7.33
23240;PMS7003;11789;53.482;9.862;2023-03-12T10:42:59;18.00;13.67;9.00
23240;PMS7003;11789;53.482;9.862;2023-03-12T10:45:26;14.00;8.67;7.33
23240;PMS7003;11789;53.482;9.862;2023-03-12T10:48:02;12.00;11.00;8.00
23240;PMS7003;11789;53.482;9.862;2023-03-12T10:50:37;13.25;12.00;8.25
23240;PMS7003;11789;53.482;9.862;2023-03-12T10:58:43;22.00;14.00;11.00
23240;PMS7003;11789;53.482;9.862;2023-03-12T11:01:21;10.33;10.33;8.00
23240;PMS7003;11789;53.482;9.862;2023-03-12T11:03:49;12.25;12.00;8.75
23240;PMS7003;11789;53.482;9.862;2023-03-12T11:06:27;14.00;10.33;9.00
23240;PMS7003;11789;53.482;9.862;2023-03-12T11:11:52;10.33;8.67;7.33
23240;PMS7003;11789;53.482;9.862;2023-03-12T11:14:22;13.00;9.00;7.00
23240;PMS7003;11789;53.482;9.862;2023-03-12T11:16:49;13.00;9.00;7.00
23240;PMS7003;11789;53.482;9.862;2023-03-12T11:19:29;8.67;8.67;7.00
23240;PMS7003;11789;53.482;9.862;2023-03-12T11:22:06;8.33;8.33;6.67
23240;PMS7003;11789;53.482;9.862;2023-03-12T11:24:35;9.00;8.00;6.00
23240;PMS7003;11789;53.482;9.862;2023-03-12T11:27:24;11.00;6.00;4.00
23240;PMS7003;11789;53.482;9.862;2023-03-12T11:29:56;7.25;6.00;5.00
23240;PMS7003;11789;53.482;9.862;2023-03-12T11:32:37;8.75;7.75;7.00
23240;PMS7003;11789;53.482;9.862;2023-03-12T11:35:08;10.50;8.25;4.50
23240;PMS7003;11789;53.482;9.862;2023-03-12T11:45:34;8.00;8.00;7.00
23240;PMS7003;11789;53.482;9.862;2023-03-12T11:53:45;6.00;6.00;4.00
23240;PMS7003;11789;53.482;9.862;2023-03-12T11:56:33;8.00;7.00;5.00
23240;PMS7003;11789;53.482;9.862;2023-03-12T12:07:03;6.25;5.50;4.00
23240;PMS7003;11789;53.482;9.862;2023-03-12T12:20:28;7.00;7.00;6.00
23240;PMS7003;11789;53.482;9.862;2023-03-12T12:23:11;7.00;6.00;4.67
23240;PMS7003;11789;53.482;9.862;2023-03-12T12:28:30;6.67;6.00;4.00
23240;PMS7003;11789;53.482;9.862;2023-03-12T12:36:41;6.67;6.67;4.00
23240;PMS7003;11789;53.482;9.862;2023-03-12T12:39:21;10.33;6.33;3.00
23240;PMS7003;11789;53.482;9.862;2023-03-12T12:41:51;6.67;4.00;3.00
23240;PMS7003;11789;53.482;9.862;2023-03-12T12:44:40;6.33;3.67;3.33
23240;PMS7003;11789;53.482;9.862;2023-03-12T12:47:11;8.00;7.33;4.67
23240;PMS7003;11789;53.482;9.862;2023-03-12T12:49:50;8.33;6.67;6.00
23240;PMS7003;11789;53.482;9.862;2023-03-12T12:52:21;6.00;6.00;4.00
23240;PMS7003;11789;53.482;9.862;2023-03-12T12:55:32;7.00;7.00;4.00
23240;PMS7003;11789;53.482;9.862;2023-03-12T12:57:48;3.00;3.00;2.00
23240;PMS7003;11789;53.482;9.862;2023-03-12T13:02:54;7.00;7.00;4.33
23240;PMS7003;11789;53.482;9.862;2023-03-12T13:05:25;8.33;6.00;4.33
23240;PMS7003;11789;53.482;9.862;2023-03-12T13:07:53;3.67;3.67;3.00
23240;PMS7003;11789;53.482;9.862;2023-03-12T13:12:56;7.00;5.67;4.33
23240;PMS7003;11789;53.482;9.862;2023-03-12T13:20:23;6.33;6.00;4.33
23240;PMS7003;11789;53.482;9.862;2023-03-12T13:33:53;7.33;7.33;6.00
23240;PMS7003;11789;53.482;9.862;2023-03-12T13:36:26;11.00;7.00;6.00
23240;PMS7003;11789;53.482;9.862;2023-03-12T13:42:24;8.67;6.33;5.00
23240;PMS7003;11789;53.482;9.862;2023-03-12T13:46:47;8.00;8.00;6.00
23240;PMS7003;11789;53.482;9.862;2023-03-12T13:49:43;8.00;8.00;6.00
23240;PMS7003;11789;53.482;9.862;2023-03-12T13:55:24;8.67;8.00;6.33
23240;PMS7003;11789;53.482;9.862;2023-03-12T13:57:53;11.67;9.33;7.00
23240;PMS7003;11789;53.482;9.862;2023-03-12T14:02:52;10.00;10.00;6.67
23240;PMS7003;11789;53.482;9.862;2023-03-12T14:05:23;6.67;6.00;4.33
23240;PMS7003;11789;53.482;9.862;2023-03-12T14:15:48;12.33;11.00;8.33
23240;PMS7003;11789;53.482;9.862;2023-03-12T14:18:44;13.00;11.00;9.00
23240;PMS7003;11789;53.482;9.862;2023-03-12T14:21:13;13.33;11.33;10.00
23240;PMS7003;11789;53.482;9.862;2023-03-12T14:23:51;10.00;10.00;7.67
23240;PMS7003;11789;53.482;9.862;2023-03-12T14:26:29;7.67;7.67;6.00
23240;PMS7003;11789;53.482;9.862;2023-03-12T14:29:03;10.33;10.00;7.00
23240;PMS7003;11789;53.482;9.862;2023-03-12T14:31:33;11.00;11.00;8.33
23240;PMS7003;11789;53.482;9.862;2023-03-12T14:34:07;10.67;10.33;7.00
23240;PMS7003;11789;53.482;9.862;2023-03-12T14:42:20;11.00;11.00;8.67
23240;PMS7003;11789;53.482;9.862;2023-03-12T14:44:57;11.67;11.67;10.00
23240;PMS7003;11789;53.482;9.862;2023-03-12T14:47:25;12.00;12.00;10.00
23240;PMS7003;11789;53.482;9.862;2023-03-12T14:49:53;16.67;16.00;12.00
23240;PMS7003;11789;53.482;9.862;2023-03-12T14:52:28;17.00;15.33;11.00
23240;PMS7003;11789;53.482;9.862;2023-03-12T14:54:58;12.67;12.67;10.00
23240;PMS7003;11789;53.482;9.862;2023-03-12T14:57:26;11.33;11.33;10.00
23240;PMS7003;11789;53.482;9.862;2023-03-12T14:59:55;11.33;11.33;8.67
23240;PMS7003;11789;53.482;9.862;2023-03-12T15:02:23;13.67;13.33;10.00
23240;PMS7003;11789;53.482;9.862;2023-03-12T15:04:51;16.67;10.67;7.00
23240;PMS7003;11789;53.482;9.862;2023-03-12T15:07:25;14.33;12.33;10.00
23240;PMS7003;11789;53.482;9.862;2023-03-12T15:09:55;15.00;13.33;10.00
23240;PMS7003;11789;53.482;9.862;2023-03-12T15:12:25;12.67;10.33;8.33
23240;PMS7003;11789;53.482;9.862;2023-03-12T15:15:02;15.67;13.67;10.00
23240;PMS7003;11789;53.482;9.862;2023-03-12T15:17:32;15.00;13.67;11.00
23240;PMS7003;11789;53.482;9.862;2023-03-12T15:20:00;14.67;12.67;10.00
23240;PMS7003;11789;53.482;9.862;2023-03-12T15:22:29;12.00;10.00;7.67
23240;PMS7003;11789;53.482;9.862;2023-03-12T15:24:55;22.33;16.00;10.67
23240;PMS7003;11789;53.482;9.862;2023-03-12T15:29:52;18.00;15.00;11.67
23240;PMS7003;11789;53.482;9.862;2023-03-12T15:32:20;15.00;15.00;10.33
23240;PMS7003;11789;53.482;9.862;2023-03-12T15:34:48;18.67;17.00;11.00
23240;PMS7003;11789;53.482;9.862;2023-03-12T15:39:52;14.00;14.00;10.00
23240;PMS7003;11789;53.482;9.862;2023-03-12T15:42:23;14.33;11.00;9.00
23240;PMS7003;11789;53.482;9.862;2023-03-12T15:44:51;12.33;11.67;10.00
23240;PMS7003;11789;53.482;9.862;2023-03-12T15:47:21;15.33;15.33;11.00
23240;PMS7003;11789;53.482;9.862;2023-03-12T15:49:55;11.67;11.67;10.00
23240;PMS7003;11789;53.482;9.862;2023-03-12T15:52:25;13.33;11.00;8.33
23240;PMS7003;11789;53.482;9.862;2023-03-12T15:57:43;11.00;10.67;7.67
23240;PMS7003;11789;53.482;9.862;2023-03-12T16:05:22;12.00;11.00;9.33
23240;PMS7003;11789;53.482;9.862;2023-03-12T16:10:45;11.67;11.67;9.33
23240;PMS7003;11789;53.482;9.862;2023-03-12T16:13:16;11.33;10.67;7.00
23240;PMS7003;11789;53.482;9.862;2023-03-12T16:15:44;8.33;8.33;7.00
23240;PMS7003;11789;53.482;9.862;2023-03-12T16:18:11;10.00;7.00;6.67
23240;PMS7003;11789;53.482;9.862;2023-03-12T16:20:38;10.67;10.67;8.67
23240;PMS7003;11789;53.482;9.862;2023-03-12T16:23:03;11.33;11.33;8.00